Time;durP1;ratioP1;P1;durP2;ratioP2;P2;SDS_P1;SDS_P2;PMS_P1;PMS_P2;Temp;Humidity;BMP_temperature;BMP_pressure;BME280_temperature;BME280_humidity;BME280_pressure;Samples;Min_cycle;Max_cycle;Signal;HPM_P1;HPM_P2
2023/07/18 00:00:14;;;;;;;6.30;2.63;;;;;;;17.78;100.00;97921.50;5012347;28;20408;-71
2023/07/18 00:02:42;;;;;;;6.43;2.80;;;;;;;17.73;100.00;97921.56;5012062;28;20448;-71
2023/07/18 00:05:12;;;;;;;6.38;2.20;;;;;;;17.79;100.00;97927.66;5011869;28;20913;-71
2023/07/18 00:07:39;;;;;;;5.70;2.30;;;;;;;17.74;100.00;97927.72;5012078;28;20451;-71
2023/07/18 00:10:07;;;;;;;4.88;2.25;;;;;;;17.69;100.00;97920.53;5011904;28;20417;-71
2023/07/18 00:12:33;;;;;;;3.22;2.22;;;;;;;17.69;100.00;97922.41;5011842;28;20407;-71
2023/07/18 00:15:03;;;;;;;4.70;2.20;;;;;;;17.64;100.00;97923.28;5011612;28;20413;-71
2023/07/18 00:17:34;;;;;;;5.57;2.45;;;;;;;17.65;100.00;97927.56;5011861;28;20428;-71
2023/07/18 00:20:00;;;;;;;4.15;2.20;;;;;;;17.68;100.00;97934.19;5011740;28;20397;-71
2023/07/18 00:22:27;;;;;;;3.85;2.20;;;;;;;17.64;100.00;97930.50;5011663;28;20716;-71
2023/07/18 00:24:53;;;;;;;6.15;2.17;;;;;;;17.60;100.00;97932.91;5011562;28;20420;-71
2023/07/18 00:27:19;;;;;;;4.85;2.42;;;;;;;17.59;100.00;97925.94;5011766;28;20409;-71
2023/07/18 00:29:45;;;;;;;4.90;2.13;;;;;;;17.57;100.00;97925.44;5011504;28;20416;-71
2023/07/18 00:32:12;;;;;;;3.33;2.10;;;;;;;17.56;100.00;97937.25;4993902;28;20775;-71
2023/07/18 00:34:41;;;;;;;4.45;2.40;;;;;;;17.54;100.00;97930.56;5011351;28;20408;-71
2023/07/18 00:37:07;;;;;;;3.73;2.43;;;;;;;17.53;100.00;97934.31;5011438;28;20409;-71
2023/07/18 00:39:33;;;;;;;4.85;2.13;;;;;;;17.50;100.00;97934.91;5011482;28;20405;-71
2023/07/18 00:42:00;;;;;;;3.87;2.00;;;;;;;17.50;100.00;97933.00;5011193;28;20416;-71
2023/07/18 00:44:26;;;;;;;5.78;2.22;;;;;;;17.44;100.00;97928.78;5011250;28;20401;-71
2023/07/18 00:46:53;;;;;;;4.25;2.30;;;;;;;17.46;100.00;97921.25;5011212;28;20409;-71
2023/07/18 00:49:19;;;;;;;4.30;2.65;;;;;;;17.39;100.00;97923.47;5011470;28;20408;-71
2023/07/18 00:51:47;;;;;;;4.32;2.00;;;;;;;17.38;100.00;97924.53;5010939;28;20424;-71
2023/07/18 00:54:14;;;;;;;4.25;2.53;;;;;;;17.36;100.00;97914.16;5011077;28;20400;-71
2023/07/18 00:56:40;;;;;;;4.15;2.08;;;;;;;17.38;100.00;97919.19;5011146;28;20436;-71
2023/07/18 00:59:07;;;;;;;5.20;2.40;;;;;;;17.37;100.00;97910.38;5011143;28;20448;-71
2023/07/18 01:01:34;;;;;;;2.85;1.92;;;;;;;17.30;100.00;97906.41;5011232;28;20814;-71
2023/07/18 01:04:00;;;;;;;6.57;2.50;;;;;;;17.28;100.00;97905.94;5011287;28;20415;-71
2023/07/18 01:06:26;;;;;;;7.05;2.25;;;;;;;17.23;100.00;97898.72;5011061;28;20463;-71
2023/07/18 01:08:54;;;;;;;3.05;1.90;;;;;;;17.19;100.00;97915.63;5011001;28;20960;-71
2023/07/18 01:11:21;;;;;;;6.55;2.55;;;;;;;17.16;100.00;97916.19;5010922;28;20444;-71
2023/07/18 01:13:47;;;;;;;2.58;2.00;;;;;;;17.10;100.00;97912.75;5010292;28;20916;-71
2023/07/18 01:16:14;;;;;;;5.47;2.30;;;;;;;17.07;100.00;97918.66;5010743;28;20404;-71
2023/07/18 01:18:40;;;;;;;4.18;1.98;;;;;;;17.07;100.00;97912.50;5010822;28;20404;-71
2023/07/18 01:21:09;;;;;;;3.72;2.20;;;;;;;17.00;100.00;97908.28;5010712;28;20423;-71
2023/07/18 01:23:37;;;;;;;4.30;2.40;;;;;;;16.95;100.00;97907.53;5010662;28;20427;-71
2023/07/18 01:26:03;;;;;;;4.85;2.40;;;;;;;16.90;100.00;97902.22;5010469;28;20408;-71
2023/07/18 01:28:31;;;;;;;3.67;2.38;;;;;;;16.88;100.00;97904.38;5010034;28;21373;-71
2023/07/18 01:30:57;;;;;;;4.35;2.10;;;;;;;16.84;100.00;97896.09;5002341;28;20429;-71
2023/07/18 01:33:23;;;;;;;3.95;2.30;;;;;;;16.80;100.00;97899.59;4993296;28;20984;-71
2023/07/18 01:35:51;;;;;;;4.78;2.00;;;;;;;16.74;100.00;97898.84;5010499;28;20874;-71
2023/07/18 01:38:18;;;;;;;4.82;2.25;;;;;;;16.72;100.00;97903.66;5010763;28;20440;-71
2023/07/18 01:40:45;;;;;;;4.78;2.22;;;;;;;16.67;100.00;97902.91;5010495;28;20401;-71
2023/07/18 01:43:12;;;;;;;5.07;2.42;;;;;;;16.62;100.00;97896.50;5010615;28;20401;-71
2023/07/18 01:45:38;;;;;;;6.53;2.67;;;;;;;16.60;100.00;97897.84;5010420;28;20802;-71
2023/07/18 01:48:05;;;;;;;3.25;2.22;;;;;;;16.58;100.00;97905.34;5010573;28;20416;-71
2023/07/18 01:50:32;;;;;;;4.10;2.10;;;;;;;16.51;100.00;97894.94;5010342;28;20986;-71
2023/07/18 01:52:58;;;;;;;5.28;2.50;;;;;;;16.47;100.00;97903.78;5010410;28;20517;-71
2023/07/18 01:55:25;;;;;;;5.55;2.33;;;;;;;16.42;100.00;97899.28;5059713;22;20437;-71
2023/07/18 01:57:52;;;;;;;4.13;2.45;;;;;;;16.38;100.00;97906.25;5050177;28;20408;-72
2023/07/18 02:00:19;;;;;;;3.80;2.60;;;;;;;16.35;100.00;97901.44;5032172;28;20907;-72
2023/07/18 02:02:48;;;;;;;3.60;2.50;;;;;;;16.33;100.00;97902.78;5050029;28;20459;-72
2023/07/18 02:05:16;;;;;;;6.40;2.70;;;;;;;16.30;100.00;97888.13;5049850;28;20408;-72
2023/07/18 02:07:42;;;;;;;4.75;2.42;;;;;;;16.26;100.00;97901.22;5050091;28;20455;-72
2023/07/18 02:10:08;;;;;;;7.43;2.30;;;;;;;16.22;100.00;97900.19;5050070;28;20401;-72
2023/07/18 02:12:34;;;;;;;4.97;2.50;;;;;;;16.22;100.00;97897.53;5050027;28;20492;-72
2023/07/18 02:15:05;;;;;;;5.07;2.67;;;;;;;16.21;100.00;97889.78;5049884;28;20405;-72
2023/07/18 02:17:31;;;;;;;4.47;2.50;;;;;;;16.17;100.00;97891.38;5049886;28;20440;-72
2023/07/18 02:19:57;;;;;;;5.37;2.57;;;;;;;16.16;100.00;97893.25;5049759;28;20405;-72
2023/07/18 02:22:24;;;;;;;6.85;2.92;;;;;;;16.13;100.00;97887.66;5049884;28;21138;-72
2023/07/18 02:24:50;;;;;;;6.32;2.67;;;;;;;16.08;100.00;97895.72;5049622;28;20469;-72
2023/07/18 02:27:19;;;;;;;4.73;2.80;;;;;;;16.03;100.00;97890.38;5052463;28;20406;-72
2023/07/18 02:29:46;;;;;;;4.68;2.70;;;;;;;16.01;100.00;97904.03;5053626;28;20403;-72
2023/07/18 02:32:16;;;;;;;6.15;2.65;;;;;;;15.98;100.00;97899.22;5053364;28;20413;-72
2023/07/18 02:34:43;;;;;;;4.70;2.50;;;;;;;15.96;100.00;97903.22;5053202;28;20405;-72
2023/07/18 02:37:09;;;;;;;4.00;2.47;;;;;;;15.93;100.00;97896.56;5053534;28;20812;-72
2023/07/18 02:39:38;;;;;;;5.13;2.58;;;;;;;15.90;100.00;97898.97;5053419;28;20405;-72
2023/07/18 02:42:06;;;;;;;5.32;2.65;;;;;;;15.88;100.00;97896.56;5053408;28;20818;-72
2023/07/18 02:44:32;;;;;;;4.28;2.63;;;;;;;15.82;100.00;97889.66;5053291;28;20913;-72
2023/07/18 02:46:58;;;;;;;6.40;3.10;;;;;;;15.82;100.00;97895.81;5053196;28;20401;-72
2023/07/18 02:49:26;;;;;;;4.03;2.80;;;;;;;15.81;100.00;97896.06;5053263;28;20875;-72
2023/07/18 02:51:52;;;;;;;7.10;2.70;;;;;;;15.77;100.00;97892.34;5052978;28;20421;-72
2023/07/18 02:54:19;;;;;;;7.55;3.00;;;;;;;15.71;100.00;97894.22;5052922;28;20770;-72
2023/07/18 02:56:45;;;;;;;5.95;2.80;;;;;;;15.68;100.00;97896.66;5053024;28;20471;-71
2023/07/18 02:59:12;;;;;;;4.70;2.60;;;;;;;15.65;100.00;97889.97;5053021;28;20429;-72
2023/07/18 03:01:38;;;;;;;3.87;2.40;;;;;;;15.64;100.00;97895.56;5053029;28;20394;-72
2023/07/18 03:04:05;;;;;;;4.30;2.65;;;;;;;15.63;100.00;97897.47;5035193;28;20670;-72
2023/07/18 03:06:32;;;;;;;7.43;3.28;;;;;;;15.60;100.00;97894.53;5052912;28;20401;-72
2023/07/18 03:08:58;;;;;;;5.00;2.42;;;;;;;15.57;100.00;97895.84;5052886;28;20488;-72
2023/07/18 03:11:25;;;;;;;5.40;2.92;;;;;;;15.55;100.00;97891.88;5052683;28;20413;-72
2023/07/18 03:13:51;;;;;;;4.57;2.40;;;;;;;15.52;100.00;97892.38;5052706;28;20491;-71
2023/07/18 03:16:17;;;;;;;4.55;2.63;;;;;;;15.48;100.00;97892.13;5052524;28;20508;-72
2023/07/18 03:18:44;;;;;;;5.93;2.97;;;;;;;15.45;100.00;97890.78;5052660;28;20401;-72
2023/07/18 03:21:10;;;;;;;6.27;2.80;;;;;;;15.39;100.00;97894.53;5052639;28;20401;-72
2023/07/18 03:23:37;;;;;;;5.55;3.05;;;;;;;15.36;100.00;97888.94;5052617;28;20397;-72
2023/07/18 03:26:04;;;;;;;5.20;2.90;;;;;;;15.36;100.00;97889.72;5052285;28;20405;-72
2023/07/18 03:28:30;;;;;;;5.47;2.80;;;;;;;15.33;100.00;97890.28;5052655;28;20397;-72
2023/07/18 03:30:56;;;;;;;4.60;2.80;;;;;;;15.30;100.00;97876.69;5052260;28;20447;-72
2023/07/18 03:33:22;;;;;;;6.35;3.00;;;;;;;15.34;100.00;97880.41;5052433;28;20455;-72
2023/07/18 03:35:48;;;;;;;8.75;3.25;;;;;;;15.34;100.00;97881.19;5052160;28;20436;-72
2023/07/18 03:38:15;;;;;;;4.93;2.85;;;;;;;15.33;100.00;97879.63;5051881;28;20402;-72
2023/07/18 03:40:42;;;;;;;3.72;2.97;;;;;;;15.30;100.00;97872.16;5052281;28;20444;-72
2023/07/18 03:43:08;;;;;;;6.85;3.10;;;;;;;15.29;100.00;97873.22;5052726;28;20437;-72
2023/07/18 03:45:35;;;;;;;8.38;2.85;;;;;;;15.24;100.00;97867.88;5052426;28;20436;-72
2023/07/18 03:48:01;;;;;;;8.40;3.60;;;;;;;15.25;100.00;97872.16;5052404;28;20481;-72
2023/07/18 03:50:27;;;;;;;4.53;3.08;;;;;;;15.27;100.00;97877.19;5052367;28;20524;-71
2023/07/18 03:52:53;;;;;;;5.40;2.90;;;;;;;15.28;100.00;97882.28;5051695;28;20406;-71
2023/07/18 03:55:20;;;;;;;10.60;3.90;;;;;;;15.30;100.00;97874.81;5052064;28;20425;-71
2023/07/18 03:57:47;;;;;;;6.45;3.33;;;;;;;15.32;100.00;97879.88;5052312;28;20402;-71
2023/07/18 04:00:17;;;;;;;7.20;3.17;;;;;;;15.30;100.00;97871.34;5052281;28;20432;-71
2023/07/18 04:02:44;;;;;;;5.85;2.97;;;;;;;15.29;100.00;97873.22;5052092;28;20398;-72
2023/07/18 04:05:11;;;;;;;4.75;2.80;;;;;;;15.30;100.00;97868.69;5052084;28;20404;-71
2023/07/18 04:07:38;;;;;;;6.60;2.88;;;;;;;15.28;100.00;97866.28;5052284;28;20496;-71
2023/07/18 04:10:05;;;;;;;5.38;2.97;;;;;;;15.26;100.00;97867.63;5052071;28;20909;-71
2023/07/18 04:12:31;;;;;;;10.07;3.42;;;;;;;15.27;100.00;97869.19;5045082;28;20493;-71
2023/07/18 04:14:58;;;;;;;5.95;3.20;;;;;;;15.24;100.00;97870.56;5050280;28;20428;-71
2023/07/18 04:17:25;;;;;;;4.85;3.20;;;;;;;15.26;100.00;97881.72;5051764;28;20432;-71
2023/07/18 04:19:52;;;;;;;5.53;3.20;;;;;;;15.27;100.00;97882.53;5051319;28;20406;-71
2023/07/18 04:22:19;;;;;;;5.85;3.00;;;;;;;15.25;100.00;97877.50;5051776;28;20409;-71
2023/07/18 04:24:45;;;;;;;7.07;3.67;;;;;;;15.29;100.00;97870.53;5033768;28;20493;-71
2023/07/18 04:27:11;;;;;;;5.85;3.40;;;;;;;15.34;100.00;97870.53;5051830;28;20412;-71
2023/07/18 04:29:37;;;;;;;4.57;3.22;;;;;;;15.39;100.00;97875.88;5051856;28;20933;-71
2023/07/18 04:32:05;;;;;;;4.90;3.10;;;;;;;15.43;100.00;97871.56;5051476;28;20417;-71
2023/07/18 04:34:32;;;;;;;6.22;3.47;;;;;;;15.44;100.00;97873.19;5051606;28;20409;-71
2023/07/18 04:36:58;;;;;;;4.45;2.92;;;;;;;15.48;100.00;97870.78;5051546;28;20492;-71
2023/07/18 04:39:24;;;;;;;4.18;3.03;;;;;;;15.52;100.00;97877.16;5049485;28;20440;-71
2023/07/18 04:41:50;;;;;;;4.45;3.35;;;;;;;15.55;100.00;97873.19;5050951;28;21069;-71
2023/07/18 04:44:16;;;;;;;9.82;3.75;;;;;;;15.58;100.00;97865.44;5051278;28;20433;-71
2023/07/18 04:46:43;;;;;;;8.02;3.33;;;;;;;15.63;100.00;97873.44;5051324;28;20394;-71
2023/07/18 04:49:10;;;;;;;4.78;3.10;;;;;;;15.69;100.00;97867.03;5050680;28;20413;-71
2023/07/18 04:51:36;;;;;;;5.35;2.90;;;;;;;15.78;100.00;97870.75;5052685;28;20443;-71
2023/07/18 04:54:03;;;;;;;4.68;2.92;;;;;;;15.85;100.00;97871.25;5049552;28;20918;-70
2023/07/18 04:56:29;;;;;;;3.50;2.65;;;;;;;15.93;100.00;97874.41;5050331;28;20978;-72
2023/07/18 04:58:55;;;;;;;3.67;2.70;;;;;;;16.00;100.00;97866.91;5052247;28;20405;-71
2023/07/18 05:01:21;;;;;;;4.43;2.70;;;;;;;16.08;100.00;97864.47;5050081;28;20409;-71
2023/07/18 05:03:48;;;;;;;4.43;2.65;;;;;;;16.18;100.00;97858.25;5042116;28;20417;-71
2023/07/18 05:06:15;;;;;;;3.88;2.50;;;;;;;16.27;100.00;97854.75;5045888;28;20413;-71
2023/07/18 05:08:41;;;;;;;4.10;2.70;;;;;;;16.38;100.00;97857.38;5046017;28;20917;-71
2023/07/18 05:11:08;;;;;;;3.38;2.47;;;;;;;16.46;100.00;97860.25;5049270;28;20492;-71
2023/07/18 05:13:34;;;;;;;3.42;2.38;;;;;;;16.53;100.00;97852.72;5048595;28;20814;-71
2023/07/18 05:16:01;;;;;;;3.90;2.58;;;;;;;16.61;100.00;97859.38;5046086;28;20480;-71
2023/07/18 05:18:27;;;;;;;2.67;2.30;;;;;;;16.67;100.00;97863.63;5044110;28;20403;-71
2023/07/18 05:20:54;;;;;;;3.60;2.53;;;;;;;16.74;100.00;97856.06;5048179;28;20400;-71
2023/07/18 05:23:22;;;;;;;3.72;2.30;;;;;;;16.81;100.00;97853.88;5048804;28;20475;-72
2023/07/18 05:25:49;;;;;;;4.97;2.10;;;;;;;16.88;100.00;97853.56;5048346;28;20428;-71
2023/07/18 05:28:15;;;;;;;3.72;2.25;;;;;;;16.94;100.00;97852.44;5048696;28;20492;-71
2023/07/18 05:30:41;;;;;;;3.03;2.30;;;;;;;16.98;100.00;97848.13;5048339;28;20625;-71
2023/07/18 05:33:08;;;;;;;3.47;2.33;;;;;;;17.03;100.00;97851.56;5047276;28;20412;-71
2023/07/18 05:35:34;;;;;;;2.60;2.07;;;;;;;17.09;100.00;97854.19;5048546;28;20402;-71
2023/07/18 05:38:01;;;;;;;4.40;2.60;;;;;;;17.13;100.00;97852.56;5050085;28;20416;-71
2023/07/18 05:40:29;;;;;;;3.53;2.60;;;;;;;17.17;100.00;97850.91;5050094;28;20525;-71
2023/07/18 05:42:55;;;;;;;3.25;2.53;;;;;;;17.20;100.00;97842.31;5050036;28;20914;-71
2023/07/18 05:45:21;;;;;;;3.83;2.45;;;;;;;17.24;100.00;97851.34;5050014;28;20445;-71
2023/07/18 05:47:47;;;;;;;4.57;2.60;;;;;;;17.25;100.00;97843.06;5050268;28;20419;-71
2023/07/18 05:50:14;;;;;;;5.72;2.90;;;;;;;17.27;100.00;97843.59;5050217;28;20599;-71
2023/07/18 05:52:40;;;;;;;4.45;2.83;;;;;;;17.29;100.00;97838.72;5049965;28;20408;-71
2023/07/18 05:55:08;;;;;;;4.75;2.70;;;;;;;17.34;100.00;97841.38;5049612;28;20406;-71
2023/07/18 05:57:36;;;;;;;5.65;3.78;;;;;;;17.36;100.00;97841.09;5050029;28;20415;-70
2023/07/18 06:00:05;;;;;;;6.03;3.50;;;;;;;17.39;100.00;97832.47;5050736;28;20455;-71
2023/07/18 06:02:32;;;;;;;5.20;3.47;;;;;;;17.42;100.00;97834.59;5054039;28;20755;-71
2023/07/18 06:04:58;;;;;;;7.07;3.83;;;;;;;17.44;100.00;97826.28;5053889;28;20408;-71
2023/07/18 06:07:24;;;;;;;5.33;3.60;;;;;;;17.46;100.00;97819.56;5054157;28;20459;-71
2023/07/18 06:09:53;;;;;;;7.63;3.70;;;;;;;17.48;100.00;97828.09;5053992;28;20887;-72
2023/07/18 06:12:19;;;;;;;6.75;4.35;;;;;;;17.49;100.00;97819.00;5053757;28;20440;-71
2023/07/18 06:14:46;;;;;;;5.97;4.13;;;;;;;17.53;100.00;97822.69;5053684;28;20420;-71
2023/07/18 06:17:13;;;;;;;12.38;5.50;;;;;;;17.52;100.00;97818.41;5053712;28;20400;-72
2023/07/18 06:19:39;;;;;;;7.80;4.22;;;;;;;17.57;100.00;97820.25;5053747;28;20467;-72
2023/07/18 06:22:06;;;;;;;7.35;4.20;;;;;;;17.59;100.00;97821.53;5053698;28;20782;-72
2023/07/18 06:24:32;;;;;;;9.25;4.72;;;;;;;17.59;100.00;97818.09;5053629;28;20436;-72
2023/07/18 06:26:58;;;;;;;7.97;4.33;;;;;;;17.64;100.00;97815.38;5053651;28;20501;-72
2023/07/18 06:29:24;;;;;;;8.10;4.18;;;;;;;17.66;100.00;97814.03;5053527;28;20459;-72
2023/07/18 06:31:56;;;;;;;8.23;4.00;;;;;;;17.70;100.00;97819.59;5053362;28;20485;-72
2023/07/18 06:34:22;;;;;;;8.68;3.95;;;;;;;17.76;100.00;97813.09;5053517;28;20496;-72
2023/07/18 06:36:48;;;;;;;4.83;3.50;;;;;;;17.79;100.00;97804.47;5053140;28;20401;-72
2023/07/18 06:39:16;;;;;;;6.40;3.83;;;;;;;17.82;100.00;97814.59;5053620;28;20917;-72
2023/07/18 06:41:43;;;;;;;5.65;3.38;;;;;;;17.85;100.00;97811.38;5045084;28;20418;-72
2023/07/18 06:44:11;;;;;;;13.55;4.28;;;;;;;17.60;100.00;97798.25;5053242;28;20410;-72
2023/07/18 06:46:37;;;;;;;6.30;3.60;;;;;;;17.79;100.00;97805.28;5053173;28;20401;-72
2023/07/18 06:49:05;;;;;;;4.82;3.33;;;;;;;17.87;100.00;97803.06;5051839;28;20424;-72
2023/07/18 06:51:31;;;;;;;7.07;3.63;;;;;;;17.92;100.00;97802.97;5043787;28;20447;-72
2023/07/18 06:53:57;;;;;;;6.80;3.38;;;;;;;17.97;100.00;97810.94;5052139;28;20787;-72
2023/07/18 06:56:24;;;;;;;6.32;3.65;;;;;;;18.01;100.00;97804.72;5028205;28;20433;-70
2023/07/18 06:58:50;;;;;;;5.30;3.42;;;;;;;18.06;100.00;97803.84;5049470;28;20410;-72
2023/07/18 07:01:16;;;;;;;5.72;3.55;;;;;;;18.11;100.00;97799.25;5050536;28;20933;-73
2023/07/18 07:03:42;;;;;;;8.23;4.30;;;;;;;18.12;100.00;97795.44;5049944;28;20909;-72
2023/07/18 07:06:13;;;;;;;5.28;3.58;;;;;;;18.16;100.00;97793.81;5045653;28;20402;-72
2023/07/18 07:08:39;;;;;;;5.93;3.78;;;;;;;18.19;100.00;97793.22;5052543;28;20440;-72
2023/07/18 07:11:07;;;;;;;8.00;4.50;;;;;;;18.23;100.00;97790.75;5043889;28;20935;-71
2023/07/18 07:13:35;;;;;;;5.93;3.83;;;;;;;18.27;100.00;97796.34;5051875;28;20425;-71
2023/07/18 07:16:03;;;;;;;6.35;3.85;;;;;;;18.28;100.00;97789.88;5052334;28;20922;-71
2023/07/18 07:18:29;;;;;;;6.78;3.65;;;;;;;18.32;100.00;97782.88;5052592;28;20459;-71
2023/07/18 07:20:55;;;;;;;5.70;3.53;;;;;;;18.36;100.00;97779.31;5052699;28;20939;-70
2023/07/18 07:23:23;;;;;;;6.18;3.22;;;;;;;18.43;100.00;97781.59;5052741;28;20488;-70
2023/07/18 07:25:50;;;;;;;5.22;3.20;;;;;;;18.47;100.00;97774.59;5052593;28;20492;-71
2023/07/18 07:28:16;;;;;;;4.28;3.17;;;;;;;18.52;100.00;97769.13;5052735;28;21124;-71
2023/07/18 07:30:42;;;;;;;5.93;3.03;;;;;;;18.57;100.00;97769.06;5052586;28;21017;-70
2023/07/18 07:33:08;;;;;;;6.35;3.33;;;;;;;18.55;100.00;97772.03;5052758;28;20505;-72
2023/07/18 07:35:35;;;;;;;5.70;3.20;;;;;;;18.62;100.00;97760.97;5052357;28;20921;-70
2023/07/18 07:38:01;;;;;;;6.72;3.22;;;;;;;18.66;100.00;97753.91;5051761;28;20420;-71
2023/07/18 07:40:29;;;;;;;7.85;3.63;;;;;;;18.69;100.00;97760.59;5051525;28;20440;-71
2023/07/18 07:42:56;;;;;;;6.35;3.30;;;;;;;18.72;100.00;97762.69;5052226;28;20926;-70
2023/07/18 07:45:22;;;;;;;4.53;3.00;;;;;;;18.74;100.00;97757.81;5052288;28;20412;-71
2023/07/18 07:47:48;;;;;;;4.70;3.23;;;;;;;18.78;100.00;97751.59;5052342;28;21021;-70
2023/07/18 07:50:15;;;;;;;3.67;2.65;;;;;;;18.81;100.00;97747.50;5052502;28;20397;-73
2023/07/18 07:52:41;;;;;;;4.40;2.70;;;;;;;18.86;100.00;97748.22;5052243;28;20409;-73
2023/07/18 07:55:09;;;;;;;6.60;3.47;;;;;;;18.88;100.00;97737.97;5070650;22;20984;-71
2023/07/18 07:57:37;;;;;;;6.57;3.30;;;;;;;18.91;100.00;97729.34;5042131;28;20422;-71
2023/07/18 08:00:04;;;;;;;7.00;2.92;;;;;;;18.99;100.00;97729.75;5051763;28;20474;-71
2023/07/18 08:02:30;;;;;;;5.07;2.90;;;;;;;18.97;100.00;97721.19;5043215;28;20484;-71
2023/07/18 08:04:56;;;;;;;4.35;2.97;;;;;;;19.02;100.00;97718.44;5051269;28;20428;-71
2023/07/18 08:07:22;;;;;;;4.20;2.92;;;;;;;19.13;100.00;97722.50;5051623;28;20409;-71
2023/07/18 08:09:50;;;;;;;6.23;2.97;;;;;;;19.22;100.00;97723.41;5051586;28;20455;-70
2023/07/18 08:12:16;;;;;;;7.70;2.90;;;;;;;19.31;100.00;97716.25;5031819;28;20901;-71
2023/07/18 08:14:44;;;;;;;6.03;3.10;;;;;;;19.37;100.00;97717.75;5029768;28;20785;-70
2023/07/18 08:17:11;;;;;;;4.53;2.92;;;;;;;19.43;100.00;97713.84;5031912;28;20916;-71
2023/07/18 08:19:39;;;;;;;4.90;2.75;;;;;;;19.51;100.00;97715.88;5041224;28;20418;-70
2023/07/18 08:22:05;;;;;;;2.92;2.42;;;;;;;19.57;100.00;97705.81;5055193;28;20473;-71
2023/07/18 08:24:31;;;;;;;3.30;2.70;;;;;;;19.65;100.00;97716.63;5031323;28;20407;-70
2023/07/18 08:26:58;;;;;;;3.50;2.50;;;;;;;19.74;100.00;97713.25;5031358;28;20439;-71
2023/07/18 08:29:26;;;;;;;4.55;2.72;;;;;;;19.81;100.00;97698.28;5035004;28;20434;-72
2023/07/18 08:31:54;;;;;;;12.48;4.20;;;;;;;19.74;100.00;97697.91;5034787;28;20493;-72
2023/07/18 08:34:20;;;;;;;5.63;3.20;;;;;;;19.87;100.00;97688.22;5031235;28;20430;-72
2023/07/18 08:36:47;;;;;;;5.72;3.25;;;;;;;19.91;100.00;97697.28;5031954;28;20435;-72
2023/07/18 08:39:13;;;;;;;5.93;3.17;;;;;;;20.05;100.00;97698.03;5045403;28;20838;-72
2023/07/18 08:41:43;;;;;;;3.40;2.58;;;;;;;20.21;100.00;97683.13;5051403;28;20814;-72
2023/07/18 08:44:09;;;;;;;6.50;3.35;;;;;;;20.44;100.00;97690.13;5049604;28;20401;-71
2023/07/18 08:46:36;;;;;;;7.50;3.33;;;;;;;20.56;100.00;97676.09;5051428;28;20416;-71
2023/07/18 08:49:05;;;;;;;6.13;3.20;;;;;;;20.56;100.00;97680.69;5042423;28;20825;-70
2023/07/18 08:51:31;;;;;;;4.20;2.50;;;;;;;20.61;100.00;97683.22;5050791;28;20914;-70
2023/07/18 08:53:57;;;;;;;3.60;2.50;;;;;;;20.66;100.00;97681.22;5037189;28;20418;-71
2023/07/18 08:56:25;;;;;;;3.63;2.50;;;;;;;20.76;100.00;97686.31;5030732;28;20414;-71
2023/07/18 08:58:51;;;;;;;3.50;2.25;;;;;;;20.82;100.00;97679.69;5032393;28;20407;-71
2023/07/18 09:01:17;;;;;;;4.13;2.60;;;;;;;20.81;100.00;97666.56;5046941;28;20591;-71
2023/07/18 09:03:43;;;;;;;3.75;2.15;;;;;;;20.99;100.00;97672.78;5044365;28;20830;-71
2023/07/18 09:06:20;;;;;;;5.23;2.80;;;;;;;21.12;100.00;97669.22;5050896;28;20482;-72
2023/07/18 09:08:47;;;;;;;4.27;2.30;;;;;;;21.20;100.00;97665.78;5046440;28;20921;-71
2023/07/18 09:11:16;;;;;;;5.05;2.40;;;;;;;21.26;100.00;97667.22;5050757;28;21070;-71
2023/07/18 09:13:43;;;;;;;3.45;2.20;;;;;;;21.39;100.00;97660.13;5050854;28;20401;-72
2023/07/18 09:16:13;;;;;;;2.60;2.10;;;;;;;21.53;100.00;97658.88;5050885;28;20409;-71
2023/07/18 09:18:42;;;;;;;6.00;2.92;;;;;;;21.64;100.00;97659.38;5047590;28;20413;-72
2023/07/18 09:21:09;;;;;;;3.92;2.55;;;;;;;21.62;100.00;97654.31;5039648;28;20405;-72
2023/07/18 09:23:41;;;;;;;5.65;2.40;;;;;;;21.71;100.00;97648.13;5050636;28;20889;-71
2023/07/18 09:26:09;;;;;;;2.95;2.20;;;;;;;21.74;100.00;97652.88;5042106;28;20463;-72
2023/07/18 09:28:36;;;;;;;2.47;1.90;;;;;;;21.85;100.00;97643.38;5044596;28;20430;-71
2023/07/18 09:31:02;;;;;;;2.70;1.80;;;;;;;21.95;100.00;97643.06;5036541;28;20893;-72
2023/07/18 09:33:29;;;;;;;3.97;2.20;;;;;;;22.06;100.00;97651.63;5037004;28;20448;-71
2023/07/18 09:35:59;;;;;;;5.82;2.42;;;;;;;22.15;100.00;97649.72;5029321;28;20414;-72
2023/07/18 09:38:26;;;;;;;4.53;2.45;;;;;;;22.19;100.00;97642.56;5037525;28;20415;-71
2023/07/18 09:40:55;;;;;;;5.28;2.38;;;;;;;22.27;100.00;97642.56;5040794;28;20448;-72
2023/07/18 09:43:23;;;;;;;6.95;3.30;;;;;;;22.19;100.00;97642.56;5038948;28;20447;-72
2023/07/18 09:45:51;;;;;;;9.65;3.60;;;;;;;22.23;100.00;97647.03;5046633;28;20476;-71
2023/07/18 09:48:18;;;;;;;4.40;2.70;;;;;;;22.45;100.00;97647.91;5027689;28;20454;-72
2023/07/18 09:50:50;;;;;;;3.25;1.92;;;;;;;22.62;100.00;97650.56;5036033;28;20493;-71
2023/07/18 09:53:21;;;;;;;5.90;2.30;;;;;;;22.67;100.00;97653.88;5041097;28;20403;-72
2023/07/18 09:55:48;;;;;;;4.43;2.25;;;;;;;22.62;100.00;97661.38;5028182;28;20962;-71
2023/07/18 09:58:17;;;;;;;3.90;2.58;;;;;;;22.75;100.00;97668.50;5033646;28;20471;-71
2023/07/18 10:00:44;;;;;;;3.97;2.10;;;;;;;22.89;100.00;97696.06;5033413;28;20410;-72
2023/07/18 10:03:11;;;;;;;3.07;2.17;;;;;;;23.05;100.00;97720.63;5032726;28;20418;-72
2023/07/18 10:05:38;;;;;;;4.83;2.47;;;;;;;22.85;100.00;97730.25;5035323;28;20902;-72
2023/07/18 10:08:07;;;;;;;4.30;2.33;;;;;;;23.01;100.00;97733.97;5041023;28;20403;-71
2023/07/18 10:10:34;;;;;;;8.80;3.00;;;;;;;23.01;100.00;97719.69;5035752;28;20924;-71
2023/07/18 10:13:01;;;;;;;4.82;2.42;;;;;;;22.94;100.00;97712.09;5047048;28;20433;-71
2023/07/18 10:15:30;;;;;;;6.25;2.83;;;;;;;22.88;100.00;97699.09;5038097;28;20411;-71
2023/07/18 10:18:16;;;;;;;5.90;2.90;;;;;;;22.71;100.00;97675.59;5043684;28;20543;-71
2023/07/18 10:20:58;;;;;;;5.20;2.90;;;;;;;22.33;100.00;97656.66;5045195;28;20463;-71
2023/07/18 10:23:40;;;;;;;4.13;2.72;;;;;;;22.16;100.00;97624.34;5041183;28;20433;-72
2023/07/18 10:26:07;;;;;;;6.25;2.70;;;;;;;22.03;100.00;97614.53;5032604;28;20414;-72
2023/07/18 10:28:42;;;;;;;4.68;2.70;;;;;;;21.97;100.00;97595.81;5041132;28;20407;-72
2023/07/18 10:31:27;;;;;;;5.90;3.07;;;;;;;21.99;100.00;97537.00;5041000;28;20912;-72
2023/07/18 10:34:10;;;;;;;3.00;2.60;;;;;;;21.97;100.00;97428.69;5049809;28;20499;-72
2023/07/18 10:36:36;;;;;;;4.20;2.42;;;;;;;21.95;100.00;97288.03;5042827;28;20430;-72
2023/07/18 10:39:09;;;;;;;4.95;2.60;;;;;;;21.97;100.00;97237.31;5043598;28;20501;-71
2023/07/18 10:41:35;;;;;;;6.47;3.42;;;;;;;21.92;100.00;97345.28;5048149;28;20397;-71
2023/07/18 10:44:02;;;;;;;8.90;3.65;;;;;;;22.08;100.00;97466.09;5038843;28;20416;-72
2023/07/18 10:46:36;;;;;;;7.60;3.35;;;;;;;22.63;100.00;97498.34;5042145;28;20402;-72
2023/07/18 10:49:03;;;;;;;4.20;2.42;;;;;;;22.65;100.00;97494.19;5053331;28;20897;-71
2023/07/18 10:51:30;;;;;;;5.32;2.97;;;;;;;22.72;100.00;97536.84;5049011;28;20497;-71
2023/07/18 10:53:58;;;;;;;6.68;3.03;;;;;;;22.86;100.00;97539.34;5040277;28;20752;-72
2023/07/18 10:56:25;;;;;;;3.50;2.63;;;;;;;22.91;100.00;97595.88;5052234;28;20401;-71
2023/07/18 10:58:52;;;;;;;3.67;2.13;;;;;;;23.13;100.00;97619.88;5044634;28;20423;-71
2023/07/18 11:01:18;;;;;;;3.58;2.40;;;;;;;23.30;100.00;97621.69;5048286;28;20402;-72
2023/07/18 11:03:46;;;;;;;3.15;2.30;;;;;;;23.30;100.00;97638.69;5038263;28;20849;-72
2023/07/18 11:06:14;;;;;;;6.85;2.65;;;;;;;23.62;100.00;97679.66;5043449;28;20899;-71
2023/07/18 11:08:47;;;;;;;7.95;2.80;;;;;;;23.66;100.00;97716.53;5041262;28;20405;-70
2023/07/18 11:11:15;;;;;;;8.82;3.22;;;;;;;23.33;100.00;97688.56;5044898;28;20421;-71
2023/07/18 11:13:44;;;;;;;4.85;3.00;;;;;;;23.24;100.00;97671.59;5040962;28;20813;-72
2023/07/18 11:16:11;;;;;;;4.03;3.00;;;;;;;23.12;100.00;97673.09;5051634;28;20401;-72
2023/07/18 11:18:40;;;;;;;6.25;3.55;;;;;;;23.02;100.00;97667.25;5041989;28;20489;-72
2023/07/18 11:21:09;;;;;;;6.43;3.00;;;;;;;23.06;100.00;97679.81;5028162;28;20395;-70
2023/07/18 11:23:37;;;;;;;4.27;2.80;;;;;;;22.88;100.00;97680.19;5040055;28;20451;-71